createdAt,value
2023-01-30T00:01:20.190Z,70.24
2023-01-30T00:03:47.054Z,69.72
2023-01-30T00:06:13.830Z,69.46
2023-01-30T00:08:40.497Z,69.59
2023-01-30T00:11:08.717Z,69.31
2023-01-30T00:13:35.432Z,69.87
2023-01-30T00:16:02.335Z,69.53
2023-01-30T00:18:29.116Z,69.66
2023-01-30T00:20:56.944Z,69.53
2023-01-30T00:23:23.742Z,68.71
2023-01-30T00:25:50.801Z,68.69
2023-01-30T00:28:17.688Z,68.17
2023-01-30T00:30:44.425Z,68.12
2023-01-30T00:33:11.447Z,68.64
2023-01-30T00:35:38.248Z,67.87
2023-01-30T00:38:04.958Z,67.82
2023-01-30T00:40:31.668Z,67.31
2023-01-30T00:43:16.712Z,67.11
2023-01-30T00:46:03.573Z,67.09
2023-01-30T00:48:31.025Z,67.01
2023-01-30T00:50:58.047Z,66.79
2023-01-30T00:53:24.964Z,66.54
2023-01-30T00:55:52.207Z,66.31
2023-01-30T00:58:19.417Z,66.83
2023-01-30T01:00:46.270Z,67.37
2023-01-30T01:03:13.161Z,67.50
2023-01-30T01:05:39.910Z,67.63
2023-01-30T01:08:06.678Z,68.04
2023-01-30T01:10:33.948Z,68.05
2023-01-30T01:13:00.831Z,67.42
2023-01-30T01:15:27.631Z,69.46
2023-01-30T01:17:56.005Z,72.00
2023-01-30T01:20:23.318Z,70.06
2023-01-30T01:22:54.059Z,69.92
2023-01-30T01:25:23.397Z,70.58
2023-01-30T01:27:50.491Z,69.46
2023-01-30T01:30:17.989Z,69.36
2023-01-30T01:32:45.047Z,69.88
2023-01-30T01:35:12.187Z,70.04
2023-01-30T01:37:38.899Z,70.11
2023-01-30T01:40:24.581Z,69.65
2023-01-30T01:42:51.456Z,69.28
2023-01-30T01:45:18.700Z,69.26
2023-01-30T01:47:48.739Z,69.12
2023-01-30T01:50:19.087Z,70.56
2023-01-30T01:52:47.009Z,70.97
2023-01-30T01:55:14.488Z,70.25
2023-01-30T01:58:02.760Z,70.03
2023-01-30T02:00:29.601Z,69.84
2023-01-30T02:03:00.788Z,70.79
2023-01-30T02:05:30.524Z,73.28
2023-01-30T02:08:05.170Z,74.07
2023-01-30T02:10:50.491Z,72.40
2023-01-30T02:13:17.878Z,73.87
2023-01-30T02:15:44.663Z,73.75
2023-01-30T02:18:12.518Z,74.72
2023-01-30T02:20:48.165Z,73.35
2023-01-30T02:23:17.638Z,73.87
2023-01-30T02:25:47.567Z,73.38
2023-01-30T02:28:26.607Z,72.31
2023-01-30T02:30:53.382Z,74.45
2023-01-30T02:33:40.104Z,73.26
2023-01-30T02:36:06.841Z,72.96
2023-01-30T02:38:53.147Z,72.45
2023-01-30T02:41:25.311Z,72.58
2023-01-30T02:43:51.990Z,71.97
2023-01-30T02:46:24.423Z,70.98
2023-01-30T02:48:59.957Z,70.92
2023-01-30T02:51:29.790Z,71.07
2023-01-30T02:53:56.607Z,71.23
2023-01-30T02:56:23.399Z,70.71
2023-01-30T02:58:53.689Z,71.25
2023-01-30T03:01:23.441Z,70.89
2023-01-30T03:04:01.768Z,71.69
2023-01-30T03:06:31.473Z,73.16
2023-01-30T03:09:21.312Z,72.07
2023-01-30T03:12:02.047Z,72.72
2023-01-30T03:14:55.157Z,71.29
2023-01-30T03:17:24.913Z,71.08
2023-01-30T03:19:53.114Z,70.99
2023-01-30T03:22:20.756Z,73.21
2023-01-30T03:24:48.133Z,72.74
2023-01-30T03:27:14.962Z,76.71
2023-01-30T03:29:41.829Z,73.42
2023-01-30T03:32:08.566Z,72.80
2023-01-30T03:34:35.247Z,71.96
2023-01-30T03:37:02.235Z,71.26
2023-01-30T03:39:28.942Z,71.42
2023-01-30T03:41:55.761Z,70.62
2023-01-30T03:44:22.628Z,72.61
2023-01-30T03:46:49.350Z,74.46
2023-01-30T03:49:16.202Z,73.89
2023-01-30T03:52:20.607Z,71.38
2023-01-30T03:54:47.407Z,71.38
2023-01-30T03:57:14.204Z,76.91
2023-01-30T03:59:41.046Z,79.22
2023-01-30T04:02:21.189Z,77.55
2023-01-30T04:04:57.047Z,75.57
2023-01-30T04:07:23.996Z,75.91
2023-01-30T04:09:50.697Z,75.14
2023-01-30T04:12:17.580Z,74.76
2023-01-30T04:14:44.315Z,74.24
2023-01-30T04:17:11.007Z,78.24
2023-01-30T04:19:37.895Z,77.33
2023-01-30T04:22:04.637Z,76.16
2023-01-30T04:24:31.448Z,75.35
2023-01-30T04:26:58.191Z,74.99
2023-01-30T04:29:25.141Z,74.45
2023-01-30T04:31:51.933Z,73.87
2023-01-30T04:34:18.668Z,72.99
2023-01-30T04:36:45.369Z,72.83
2023-01-30T04:39:12.067Z,72.78
2023-01-30T04:41:38.818Z,72.66
2023-01-30T04:44:05.508Z,72.01
2023-01-30T04:46:32.220Z,71.63
2023-01-30T04:48:58.929Z,71.47
2023-01-30T04:51:25.808Z,70.87
2023-01-30T04:53:52.510Z,70.56
2023-01-30T04:56:22.681Z,70.26
2023-01-30T04:58:49.378Z,70.02
2023-01-30T05:01:19.599Z,70.29
2023-01-30T05:03:49.299Z,70.30
2023-01-30T05:06:15.989Z,71.06
2023-01-30T05:08:43.033Z,69.94
2023-01-30T05:11:10.849Z,70.20
2023-01-30T05:13:37.554Z,70.63
2023-01-30T05:16:07.290Z,70.77
2023-01-30T05:18:34.395Z,72.37
2023-01-30T05:21:08.068Z,71.94
2023-01-30T05:23:35.183Z,71.42
2023-01-30T05:26:02.380Z,71.28
2023-01-30T05:28:29.559Z,71.00
2023-01-30T05:31:06.751Z,71.38
2023-01-30T05:33:33.700Z,70.77
2023-01-30T05:36:00.553Z,73.46
2023-01-30T05:38:29.608Z,72.91
2023-01-30T05:41:03.482Z,72.28
2023-01-30T05:43:30.550Z,72.59
2023-01-30T05:45:58.210Z,72.15
2023-01-30T05:48:25.201Z,72.37
2023-01-30T05:50:52.521Z,72.49
2023-01-30T05:53:19.857Z,72.54
2023-01-30T05:55:46.576Z,72.16
2023-01-30T05:58:13.397Z,71.84
2023-01-30T06:00:40.198Z,72.33
2023-01-30T06:03:06.925Z,72.08
2023-01-30T06:05:33.647Z,71.33
2023-01-30T06:08:00.370Z,71.57
2023-01-30T06:10:27.047Z,71.47
2023-01-30T06:12:54.144Z,79.33
2023-01-30T06:15:20.955Z,79.11
2023-01-30T06:17:47.672Z,77.08
2023-01-30T06:20:14.588Z,75.77
2023-01-30T06:22:41.290Z,77.37
2023-01-30T06:25:09.358Z,78.34
2023-01-30T06:27:36.242Z,77.10
2023-01-30T06:30:03.201Z,77.97
2023-01-30T06:32:29.969Z,76.49
2023-01-30T06:34:56.677Z,75.80
2023-01-30T06:37:23.409Z,77.50
2023-01-30T06:39:50.177Z,79.05
2023-01-30T06:42:16.932Z,80.53
2023-01-30T06:44:43.799Z,82.83
2023-01-30T06:47:10.525Z,79.64
2023-01-30T06:49:37.267Z,79.38
2023-01-30T06:52:05.883Z,82.17
2023-01-30T06:54:32.758Z,75.98
2023-01-30T06:56:59.729Z,72.60
2023-01-30T06:59:26.500Z,70.24
2023-01-30T07:01:53.297Z,67.69
2023-01-30T07:04:20.076Z,65.35
2023-01-30T07:06:47.179Z,65.58
2023-01-30T07:09:13.958Z,63.82
2023-01-30T07:11:40.807Z,63.41
2023-01-30T07:14:07.527Z,61.47
2023-01-30T07:16:34.267Z,59.60
2023-01-30T07:19:01.104Z,58.72
2023-01-30T07:21:27.902Z,56.56
2023-01-30T07:23:54.722Z,57.43
2023-01-30T07:26:21.577Z,55.64
2023-01-30T07:28:48.352Z,56.27
2023-01-30T07:31:15.040Z,56.75
2023-01-30T07:33:41.781Z,55.98
2023-01-30T07:36:08.689Z,56.10
2023-01-30T07:38:36.849Z,54.81
2023-01-30T07:41:03.562Z,54.56
2023-01-30T07:43:30.381Z,55.25
2023-01-30T07:45:57.082Z,55.14
2023-01-30T07:48:23.839Z,52.78
2023-01-30T07:50:50.760Z,52.46
2023-01-30T07:53:18.814Z,51.78
2023-01-30T07:55:46.037Z,51.53
2023-01-30T07:58:14.408Z,50.28
2023-01-30T08:00:43.052Z,50.20
2023-01-30T08:03:13.726Z,48.21
2023-01-30T08:05:43.610Z,50.17
2023-01-30T08:08:10.474Z,49.66
2023-01-30T08:10:37.358Z,51.88
2023-01-30T08:13:04.261Z,51.62
2023-01-30T08:15:32.980Z,51.98
2023-01-30T08:18:00.100Z,54.45
2023-01-30T08:20:27.619Z,54.79
2023-01-30T08:22:54.771Z,56.63
2023-01-30T08:25:21.669Z,55.12
2023-01-30T08:27:48.634Z,57.48
2023-01-30T08:30:15.645Z,58.10
2023-01-30T08:32:42.609Z,58.41
2023-01-30T08:35:09.788Z,58.64
2023-01-30T08:37:36.674Z,59.49
2023-01-30T08:40:03.720Z,59.81
2023-01-30T08:42:30.563Z,58.42
2023-01-30T08:44:59.560Z,60.04
2023-01-30T08:47:27.366Z,59.59
2023-01-30T08:49:57.280Z,62.39
2023-01-30T08:52:24.349Z,62.79
2023-01-30T08:54:51.171Z,63.03
2023-01-30T08:59:45.192Z,61.77
2023-01-30T09:02:15.679Z,62.15
2023-01-30T09:04:44.692Z,61.38
2023-01-30T09:07:13.533Z,62.66
2023-01-30T09:09:40.639Z,60.33
2023-01-30T09:12:08.603Z,59.59
2023-01-30T09:14:35.670Z,59.87
2023-01-30T09:17:02.986Z,58.58
2023-01-30T09:19:32.152Z,58.05
2023-01-30T09:21:59.347Z,59.18
2023-01-30T09:24:34.212Z,57.90
2023-01-30T09:27:02.939Z,57.96
2023-01-30T09:29:33.962Z,57.71
2023-01-30T09:32:05.817Z,57.29
2023-01-30T09:34:36.973Z,58.45
2023-01-30T09:37:05.014Z,58.61
2023-01-30T09:39:32.191Z,58.67
2023-01-30T09:42:05.234Z,58.32
2023-01-30T09:44:41.299Z,58.50
2023-01-30T09:47:19.122Z,58.81
2023-01-30T09:49:55.086Z,59.11
2023-01-30T09:52:35.052Z,58.74
2023-01-30T09:55:24.756Z,59.30
2023-01-30T09:57:54.418Z,58.93
2023-01-30T10:00:44.609Z,59.10
2023-01-30T10:03:21.526Z,59.09
2023-01-30T10:05:49.980Z,58.84
2023-01-30T10:08:19.831Z,60.42
2023-01-30T10:11:09.608Z,60.91
2023-01-30T10:13:54.698Z,60.11
2023-01-30T10:16:28.830Z,59.24
2023-01-30T10:19:00.757Z,59.41
2023-01-30T10:21:35.759Z,58.64
2023-01-30T10:24:08.785Z,57.88
2023-01-30T10:26:35.616Z,58.82
2023-01-30T10:29:07.537Z,58.89
2023-01-30T10:31:44.747Z,59.19
2023-01-30T10:34:14.828Z,59.00
2023-01-30T10:36:49.215Z,57.98
2023-01-30T10:39:23.141Z,59.30
2023-01-30T10:41:59.369Z,58.53
2023-01-30T10:44:26.355Z,59.21
2023-01-30T10:46:59.508Z,60.15
2023-01-30T10:49:46.883Z,59.08
2023-01-30T10:52:24.669Z,58.39
2023-01-30T10:55:00.559Z,56.57
2023-01-30T10:57:38.808Z,55.30
2023-01-30T11:00:10.801Z,54.48
2023-01-30T11:02:58.464Z,53.08
2023-01-30T11:05:26.329Z,52.75
2023-01-30T11:07:53.254Z,52.09
2023-01-30T11:10:24.569Z,51.52
2023-01-30T11:12:56.527Z,50.65
2023-01-30T11:15:28.196Z,50.51
2023-01-30T11:18:49.717Z,50.65
2023-01-30T11:21:01.508Z,51.22
2023-01-30T11:23:40.621Z,49.52
2023-01-30T11:26:11.795Z,49.95
2023-01-30T11:28:49.149Z,49.65
2023-01-30T11:31:44.487Z,52.14
2023-01-30T11:34:18.441Z,50.90
2023-01-30T11:36:47.613Z,50.34
2023-01-30T11:39:14.796Z,50.28
2023-01-30T11:41:42.799Z,49.80
2023-01-30T11:44:12.007Z,48.45
2023-01-30T11:46:40.156Z,49.30
2023-01-30T11:49:47.286Z,49.34
2023-01-30T11:52:08.454Z,47.72
2023-01-30T11:54:41.530Z,48.70
2023-01-30T11:57:12.320Z,47.00
2023-01-30T11:59:50.077Z,47.15
2023-01-30T12:02:29.310Z,48.50
2023-01-30T12:04:57.579Z,46.92
2023-01-30T12:07:26.261Z,48.32
2023-01-30T12:09:55.142Z,48.07
2023-01-30T12:12:39.385Z,49.41
2023-01-30T12:15:19.366Z,49.72
2023-01-30T12:17:50.273Z,52.88
2023-01-30T12:20:26.624Z,50.17
2023-01-30T12:23:00.746Z,49.90
2023-01-30T12:25:35.024Z,48.72
2023-01-30T12:28:18.974Z,48.61
2023-01-30T12:30:59.007Z,50.16
2023-01-30T12:33:28.880Z,51.69
2023-01-30T12:36:01.912Z,53.18
2023-01-30T12:38:40.118Z,54.62
2023-01-30T12:41:16.249Z,55.91
2023-01-30T12:43:56.117Z,57.19
2023-01-30T12:46:38.276Z,57.45
2023-01-30T12:49:11.316Z,54.43
2023-01-30T12:51:51.660Z,53.88
2023-01-30T12:54:33.637Z,55.06
2023-01-30T12:57:23.178Z,53.58
2023-01-30T13:00:16.331Z,53.63
2023-01-30T13:02:49.257Z,52.57
2023-01-30T13:05:21.669Z,51.45
2023-01-30T13:08:11.541Z,50.76
2023-01-30T13:10:41.130Z,51.87
2023-01-30T13:13:25.199Z,52.54
2023-01-30T13:16:12.161Z,53.17
2023-01-30T13:18:55.726Z,52.98
2023-01-30T13:21:45.145Z,53.45
2023-01-30T13:24:22.768Z,53.94
2023-01-30T13:26:51.126Z,53.06
2023-01-30T13:29:33.517Z,52.33
2023-01-30T13:32:03.067Z,53.42
2023-01-30T13:34:34.394Z,53.41
2023-01-30T13:37:11.097Z,53.37
2023-01-30T13:39:42.375Z,53.10
2023-01-30T13:42:28.109Z,52.55
2023-01-30T13:44:57.888Z,55.10
2023-01-30T13:47:45.021Z,53.49
2023-01-30T13:50:41.439Z,54.51
2023-01-30T13:53:21.897Z,55.11
2023-01-30T13:56:32.936Z,55.65
2023-01-30T13:59:12.301Z,54.64
2023-01-30T14:02:00.058Z,54.27
2023-01-30T14:04:42.560Z,55.19
2023-01-30T14:07:12.248Z,54.45
2023-01-30T14:09:49.140Z,56.69
2023-01-30T14:12:20.602Z,55.58
2023-01-30T14:15:07.652Z,56.77
2023-01-30T14:17:34.634Z,55.44
2023-01-30T14:20:04.502Z,55.81
2023-01-30T14:22:36.950Z,54.44
2023-01-30T14:25:22.735Z,54.30
2023-01-30T14:27:53.107Z,54.42
2023-01-30T14:30:32.250Z,55.03
2023-01-30T14:33:00.578Z,54.03
2023-01-30T14:35:32.868Z,53.10
2023-01-30T14:38:12.018Z,53.77
2023-01-30T14:40:40.078Z,55.27
2023-01-30T14:43:15.231Z,55.60
2023-01-30T14:45:57.103Z,55.77
2023-01-30T14:48:37.607Z,55.99
2023-01-30T14:51:10.328Z,55.29
2023-01-30T14:53:47.922Z,55.42
2023-01-30T14:56:17.000Z,56.32
2023-01-30T14:58:57.135Z,55.24
2023-01-30T15:01:25.109Z,56.08
2023-01-30T15:03:52.260Z,55.00
2023-01-30T15:06:22.537Z,55.04
2023-01-30T15:08:50.426Z,55.19
2023-01-30T15:11:21.531Z,55.28
2023-01-30T15:13:55.297Z,54.24
2023-01-30T15:16:34.175Z,54.99
2023-01-30T15:19:19.449Z,54.06
2023-01-30T15:21:51.208Z,53.50
2023-01-30T15:24:33.260Z,53.89
2023-01-30T15:27:14.520Z,53.24
2023-01-30T15:29:50.703Z,53.54
2023-01-30T15:32:23.129Z,53.59
2023-01-30T15:35:10.079Z,53.21
2023-01-30T15:37:40.281Z,53.17
2023-01-30T15:40:19.289Z,53.19
2023-01-30T15:43:05.815Z,53.31
2023-01-30T15:45:51.503Z,52.80
2023-01-30T15:48:36.928Z,52.99
2023-01-30T15:51:04.318Z,58.73
2023-01-30T15:53:34.691Z,59.34
2023-01-30T15:56:03.538Z,55.98
2023-01-30T15:58:38.248Z,57.35
2023-01-30T16:01:10.633Z,58.17
2023-01-30T16:03:42.808Z,56.98
2023-01-30T16:06:24.788Z,57.76
2023-01-30T16:08:58.709Z,58.81
2023-01-30T16:11:35.648Z,58.70
2023-01-30T16:14:02.497Z,59.35
2023-01-30T16:16:57.654Z,60.37
2023-01-30T16:19:34.840Z,60.78
2023-01-30T16:22:04.300Z,60.79
2023-01-30T16:24:33.164Z,62.37
2023-01-30T16:27:02.942Z,61.92
2023-01-30T16:29:33.553Z,67.02
2023-01-30T16:32:00.755Z,66.10
2023-01-30T16:34:37.162Z,65.98
2023-01-30T16:37:21.938Z,64.79
2023-01-30T16:40:07.497Z,62.65
2023-01-30T16:42:34.359Z,64.84
2023-01-30T16:45:21.717Z,64.82
2023-01-30T16:47:48.540Z,63.18
2023-01-30T16:50:21.515Z,65.00
2023-01-30T16:52:52.014Z,65.12
2023-01-30T16:55:20.680Z,67.93
2023-01-30T16:57:50.517Z,67.79
2023-01-30T17:00:29.488Z,65.17
2023-01-30T17:02:57.914Z,64.17
2023-01-30T17:05:29.521Z,65.91
2023-01-30T17:07:57.021Z,63.96
2023-01-30T17:10:41.881Z,64.36
2023-01-30T17:13:28.032Z,63.80
2023-01-30T17:15:55.115Z,62.70
2023-01-30T17:18:21.918Z,62.18
2023-01-30T17:20:51.418Z,63.36
2023-01-30T17:23:19.432Z,62.96
2023-01-30T17:25:48.238Z,62.14
2023-01-30T17:28:21.519Z,65.11
2023-01-30T17:30:49.068Z,68.91
2023-01-30T17:33:17.972Z,68.38
2023-01-30T17:35:45.301Z,64.64
2023-01-30T17:38:12.437Z,65.22
2023-01-30T17:40:39.517Z,62.91
2023-01-30T17:43:06.368Z,64.29
2023-01-30T17:45:33.205Z,64.50
2023-01-30T17:47:59.965Z,64.05
2023-01-30T17:50:28.580Z,63.78
2023-01-30T17:52:55.348Z,64.04
2023-01-30T17:55:22.464Z,63.86
2023-01-30T17:57:49.711Z,64.38
2023-01-30T18:00:20.300Z,63.40
2023-01-30T18:02:47.461Z,62.58
2023-01-30T18:05:14.709Z,67.66
2023-01-30T18:07:41.671Z,65.14
2023-01-30T18:10:12.329Z,63.24
2023-01-30T18:12:39.070Z,65.98
2023-01-30T18:15:06.047Z,65.28
2023-01-30T18:17:32.880Z,64.72
2023-01-30T18:20:01.297Z,65.06
2023-01-30T18:22:28.073Z,65.32
2023-01-30T18:24:54.808Z,64.87
2023-01-30T18:27:21.578Z,65.56
2023-01-30T18:29:48.251Z,65.05
2023-01-30T18:32:14.999Z,66.36
2023-01-30T18:34:42.090Z,67.37
2023-01-30T18:37:08.884Z,66.05
2023-01-30T18:39:36.973Z,69.32
2023-01-30T18:42:04.350Z,69.08
2023-01-30T18:44:31.357Z,67.68
2023-01-30T18:46:58.550Z,66.75
2023-01-30T18:49:25.353Z,69.39
2023-01-30T18:51:52.107Z,68.01
2023-01-30T18:54:18.864Z,67.53
2023-01-30T18:56:45.681Z,66.75
2023-01-30T18:59:12.551Z,66.00
2023-01-30T19:01:42.732Z,65.10
2023-01-30T19:04:10.591Z,65.04
2023-01-30T19:06:39.389Z,64.89
2023-01-30T19:09:06.601Z,65.04
2023-01-30T19:11:53.588Z,64.96
2023-01-30T19:14:20.452Z,64.88
2023-01-30T19:16:47.440Z,65.07
2023-01-30T19:19:14.361Z,64.82
2023-01-30T19:21:41.150Z,64.66
2023-01-30T19:24:11.548Z,68.81
2023-01-30T19:26:38.343Z,69.58
2023-01-30T19:29:05.488Z,67.22
2023-01-30T19:31:32.377Z,66.76
2023-01-30T19:34:01.137Z,65.56
2023-01-30T19:36:29.390Z,65.58
2023-01-30T19:38:59.345Z,65.84
2023-01-30T19:41:28.152Z,70.25
2023-01-30T19:43:55.661Z,67.02
2023-01-30T19:46:23.894Z,67.78
2023-01-30T19:48:50.692Z,66.87
2023-01-30T19:51:43.860Z,69.63
2023-01-30T19:54:11.949Z,66.64
2023-01-30T19:56:42.732Z,73.42
2023-01-30T19:59:11.322Z,72.27
2023-01-30T20:01:40.578Z,73.49
2023-01-30T20:04:08.699Z,72.02
2023-01-30T20:06:36.218Z,73.26
2023-01-30T20:09:08.615Z,78.31
2023-01-30T20:11:36.330Z,82.28
2023-01-30T20:14:23.147Z,77.69
2023-01-30T20:17:09.819Z,76.34
2023-01-30T20:19:36.538Z,77.06
2023-01-30T20:22:08.294Z,77.21
2023-01-30T20:24:47.794Z,77.89
2023-01-30T20:27:15.168Z,76.48
2023-01-30T20:29:41.946Z,75.65
2023-01-30T20:32:08.860Z,74.67
2023-01-30T20:34:35.697Z,73.43
2023-01-30T20:37:02.390Z,73.69
2023-01-30T20:39:29.696Z,74.44
2023-01-30T20:41:56.458Z,73.33
2023-01-30T20:44:24.491Z,72.73
2023-01-30T20:46:51.473Z,71.90
2023-01-30T20:49:19.630Z,72.37
2023-01-30T20:51:47.150Z,72.12
2023-01-30T20:54:15.016Z,72.52
2023-01-30T20:56:43.929Z,72.26
2023-01-30T20:59:12.093Z,72.29
2023-01-30T21:01:39.458Z,71.59
2023-01-30T21:04:07.468Z,71.37
2023-01-30T21:06:42.437Z,71.34
2023-01-30T21:09:15.900Z,71.59
2023-01-30T21:11:43.311Z,71.17
2023-01-30T21:14:12.056Z,71.56
2023-01-30T21:16:39.395Z,73.43
2023-01-30T21:19:07.475Z,71.90
2023-01-30T21:21:35.941Z,72.34
2023-01-30T21:24:04.505Z,71.90
2023-01-30T21:26:32.235Z,72.53
2023-01-30T21:29:03.008Z,71.53
2023-01-30T21:31:30.946Z,70.86
2023-01-30T21:33:59.684Z,75.17
2023-01-30T21:36:27.333Z,74.52
2023-01-30T21:39:12.962Z,77.38
2023-01-30T21:41:59.713Z,75.87
2023-01-30T21:44:28.207Z,74.31
2023-01-30T21:46:55.191Z,74.70
2023-01-30T21:49:25.463Z,74.21
2023-01-30T21:51:52.662Z,73.45
2023-01-30T21:54:19.587Z,72.91
2023-01-30T21:56:48.885Z,72.47
2023-01-30T21:59:15.809Z,72.77
2023-01-30T22:01:42.700Z,71.98
2023-01-30T22:04:10.999Z,73.70
2023-01-30T22:06:38.871Z,75.45
2023-01-30T22:09:06.023Z,74.56
2023-01-30T22:11:33.040Z,74.12
2023-01-30T22:13:59.821Z,73.77
2023-01-30T22:16:33.750Z,73.10
2023-01-30T22:19:01.764Z,72.60
2023-01-30T22:21:32.481Z,72.13
2023-01-30T22:23:59.561Z,71.79
2023-01-30T22:26:28.625Z,72.81
2023-01-30T22:28:56.524Z,73.09
2023-01-30T22:31:43.390Z,71.75
2023-01-30T22:34:30.587Z,72.72
2023-01-30T22:37:01.797Z,73.39
2023-01-30T22:39:28.520Z,76.80
2023-01-30T22:42:15.370Z,78.39
2023-01-30T22:44:46.570Z,74.56
2023-01-30T22:47:13.673Z,75.42
2023-01-30T22:50:00.372Z,79.09
2023-01-30T22:52:38.287Z,76.52
2023-01-30T22:55:09.544Z,77.47
2023-01-30T22:57:36.835Z,76.26
2023-01-30T23:00:09.409Z,77.31
2023-01-30T23:02:36.215Z,77.04
2023-01-30T23:05:04.296Z,77.27
2023-01-30T23:07:31.040Z,79.80
2023-01-30T23:10:03.143Z,76.97
2023-01-30T23:12:48.561Z,76.66
2023-01-30T23:15:15.275Z,76.74
2023-01-30T23:18:00.501Z,77.34
2023-01-30T23:20:27.219Z,78.12
2023-01-30T23:22:54.700Z,78.76
2023-01-30T23:25:21.690Z,79.23
2023-01-30T23:27:48.719Z,79.29
2023-01-30T23:30:15.575Z,77.99
2023-01-30T23:32:42.430Z,82.97
2023-01-30T23:35:09.688Z,82.80
2023-01-30T23:37:54.968Z,83.97
2023-01-30T23:40:22.129Z,83.99
2023-01-30T23:42:48.832Z,86.13
2023-01-30T23:45:15.766Z,85.54
2023-01-30T23:47:43.618Z,84.53
2023-01-30T23:50:10.977Z,89.17
2023-01-30T23:52:38.719Z,97.84
2023-01-30T23:55:06.892Z,100.00
2023-01-30T23:57:33.580Z,97.04
